Time;durP1;ratioP1;P1;durP2;ratioP2;P2;SDS_P1;SDS_P2;PMS_P1;PMS_P2;Temp;Humidity;BMP_temperature;BMP_pressure;BME280_temperature;BME280_humidity;BME280_pressure;Samples;Min_cycle;Max_cycle;Signal;HPM_P1;HPM_P2
2022/03/06 00:01:03;;;;;;;13.55;8.52;;;3.30;99.90;;;;;;4984670;28;20414;-81
2022/03/06 00:03:29;;;;;;;12.70;8.90;;;1.90;99.90;;;;;;5019346;28;20049;-82
2022/03/06 00:05:55;;;;;;;13.10;8.30;;;2.00;99.90;;;;;;5002148;28;20049;-81
2022/03/06 00:08:21;;;;;;;10.35;8.05;;;3.20;99.90;;;;;;5000853;28;20420;-81
2022/03/06 00:10:47;;;;;;;12.07;8.18;;;2.10;99.90;;;;;;5013168;28;20747;-80
2022/03/06 00:13:14;;;;;;;11.73;7.78;;;1.60;99.90;;;;;;5008230;28;20111;-80
2022/03/06 00:15:41;;;;;;;10.95;7.88;;;3.00;99.90;;;;;;5008263;28;20132;-82
2022/03/06 00:18:07;;;;;;;12.73;8.05;;;2.20;99.90;;;;;;4985249;28;20069;-83
2022/03/06 00:20:33;;;;;;;12.68;7.78;;;2.00;99.90;;;;;;4975590;28;20054;-82
2022/03/06 00:22:58;;;;;;;12.98;7.70;;;2.00;99.90;;;;;;4985155;28;20042;-82
2022/03/06 00:25:24;;;;;;;11.90;7.68;;;3.70;99.90;;;;;;5015570;28;20842;-80
2022/03/06 00:27:50;;;;;;;12.75;7.75;;;2.00;99.90;;;;;;5016268;28;20809;-80
2022/03/06 00:30:16;;;;;;;10.15;7.38;;;2.70;99.90;;;;;;5001070;28;20049;-79
2022/03/06 00:32:42;;;;;;;11.43;7.85;;;2.10;99.90;;;;;;5033472;28;20103;-80
2022/03/06 00:35:08;;;;;;;12.35;7.82;;;2.10;99.90;;;;;;5014357;28;20415;-80
2022/03/06 00:37:35;;;;;;;9.43;7.78;;;3.70;99.90;;;;;;4992255;28;20445;-80
2022/03/06 00:40:01;;;;;;;13.02;8.07;;;2.10;99.90;;;;;;5034362;28;20383;-81
2022/03/06 00:42:27;;;;;;;12.77;8.60;;;3.10;99.90;;;;;;5007562;28;20061;-80
2022/03/06 00:44:53;;;;;;;11.65;7.80;;;2.20;99.90;;;;;;5007998;28;20066;-81
2022/03/06 00:47:19;;;;;;;11.27;7.55;;;2.20;99.90;;;;;;5008833;28;20053;-81
2022/03/06 00:49:45;;;;;;;10.25;7.32;;;2.30;99.90;;;;;;5004460;28;20061;-81
2022/03/06 00:52:12;;;;;;;12.55;7.95;;;3.20;99.90;;;;;;5016569;28;20053;-81
2022/03/06 00:54:38;;;;;;;9.98;7.88;;;2.30;99.90;;;;;;5010698;28;20049;-80
2022/03/06 00:57:04;;;;;;;10.75;7.50;;;2.40;99.90;;;;;;5018924;28;20403;-81
2022/03/06 00:59:34;;;;;;;11.05;7.65;;;3.20;99.90;;;;;;5011832;28;20050;-81
2022/03/06 01:02:05;;;;;;;10.63;7.43;;;2.40;99.90;;;;;;5004713;28;20053;-81
2022/03/06 01:04:32;;;;;;;13.52;8.05;;;2.40;99.90;;;;;;5011463;28;20053;-81
2022/03/06 01:06:58;;;;;;;11.00;8.07;;;2.40;99.90;;;;;;5017220;28;20041;-80
2022/03/06 01:09:25;;;;;;;11.00;7.80;;;2.40;99.90;;;;;;5011832;28;20383;-81
2022/03/06 01:11:51;;;;;;;10.80;7.93;;;2.50;99.90;;;;;;5020375;28;20128;-80
2022/03/06 01:14:17;;;;;;;8.95;7.03;;;2.50;99.90;;;;;;5028580;28;20095;-81
2022/03/06 01:16:43;;;;;;;12.95;8.00;;;2.50;99.90;;;;;;5020660;28;20103;-81
2022/03/06 01:19:09;;;;;;;10.45;7.63;;;2.80;99.90;;;;;;5004269;28;20049;-80
2022/03/06 01:21:35;;;;;;;10.82;7.68;;;3.10;99.90;;;;;;5035000;28;20156;-80
2022/03/06 01:24:01;;;;;;;12.35;8.63;;;2.50;99.90;;;;;;5003859;28;20045;-80
2022/03/06 01:26:26;;;;;;;11.95;7.88;;;3.90;99.90;;;;;;4995577;28;20045;-81
2022/03/06 01:28:52;;;;;;;11.52;7.32;;;3.30;99.90;;;;;;5003968;28;20172;-81
2022/03/06 01:31:18;;;;;;;11.02;7.38;;;2.50;99.90;;;;;;5019561;28;20048;-81
2022/03/06 01:33:44;;;;;;;10.75;7.88;;;2.50;99.90;;;;;;4987020;28;20203;-80
2022/03/06 01:36:10;;;;;;;10.38;7.55;;;2.50;99.90;;;;;;5004408;28;20053;-81
2022/03/06 01:38:35;;;;;;;12.20;7.55;;;3.50;99.90;;;;;;5004202;28;20052;-81
2022/03/06 01:41:02;;;;;;;12.25;8.25;;;2.50;99.90;;;;;;5011315;28;20130;-80
2022/03/06 01:43:28;;;;;;;12.05;8.23;;;2.50;99.90;;;;;;4979905;28;20049;-81
2022/03/06 01:45:53;;;;;;;11.20;7.63;;;4.00;99.90;;;;;;5019808;28;20051;-80
2022/03/06 01:48:19;;;;;;;14.00;7.88;;;3.20;99.90;;;;;;5004068;28;20050;-81
2022/03/06 01:50:45;;;;;;;13.52;8.65;;;3.20;99.90;;;;;;5003991;28;20084;-81
2022/03/06 01:53:12;;;;;;;11.77;7.70;;;2.60;99.90;;;;;;5011674;28;20060;-80
2022/03/06 01:55:38;;;;;;;11.70;7.95;;;2.60;99.90;;;;;;5019242;28;20060;-81
2022/03/06 01:58:08;;;;;;;15.35;8.13;;;2.70;99.90;;;;;;5004417;28;20063;-80
2022/03/06 02:00:41;;;;;;;10.27;7.35;;;2.60;99.90;;;;;;5004576;28;20053;-81
2022/03/06 02:03:07;;;;;;;11.35;7.82;;;2.80;99.90;;;;;;5004339;28;20317;-80
2022/03/06 02:05:33;;;;;;;11.57;7.90;;;4.00;99.90;;;;;;5019689;28;20060;-80
2022/03/06 02:07:59;;;;;;;10.10;8.07;;;2.20;99.90;;;;;;5017454;28;20057;-80
2022/03/06 02:10:25;;;;;;;14.13;8.80;;;2.70;99.90;;;;;;5004445;28;20085;-80
2022/03/06 02:12:51;;;;;;;12.35;8.43;;;2.70;99.90;;;;;;5024930;28;20081;-80
2022/03/06 02:15:17;;;;;;;10.98;8.63;;;3.00;99.90;;;;;;5028729;28;20062;-80
2022/03/06 02:17:44;;;;;;;12.57;8.50;;;3.40;99.90;;;;;;5007320;28;20058;-80
2022/03/06 02:20:23;;;;;;;11.02;8.75;;;3.30;99.90;;;;;;5025774;28;20057;-81
2022/03/06 02:22:52;;;;;;;10.80;8.57;;;2.70;99.90;;;;;;5003218;28;20046;-81
2022/03/06 02:25:27;;;;;;;12.25;8.75;;;2.60;99.90;;;;;;5004243;28;20649;-81
2022/03/06 02:27:54;;;;;;;12.90;8.67;;;2.70;99.90;;;;;;5019178;28;20447;-81
2022/03/06 02:30:22;;;;;;;13.68;8.75;;;2.60;99.90;;;;;;5018711;28;20069;-81
2022/03/06 02:32:50;;;;;;;13.15;9.40;;;2.70;99.90;;;;;;5018307;28;20139;-81
2022/03/06 02:35:17;;;;;;;13.70;9.88;;;2.70;99.90;;;;;;5026930;28;20057;-81
2022/03/06 02:37:43;;;;;;;11.13;9.07;;;2.70;99.90;;;;;;5002335;28;20044;-81
2022/03/06 02:40:11;;;;;;;13.30;8.82;;;2.70;99.90;;;;;;5002877;28;20069;-81
2022/03/06 02:42:39;;;;;;;13.00;9.63;;;2.70;99.90;;;;;;5002102;28;20053;-81
2022/03/06 02:45:09;;;;;;;14.20;10.13;;;2.70;99.90;;;;;;5003490;28;20041;-81
2022/03/06 02:47:35;;;;;;;13.10;9.25;;;2.70;99.90;;;;;;5010282;28;20139;-82
2022/03/06 02:50:02;;;;;;;14.93;10.02;;;3.00;99.90;;;;;;5002105;28;20081;-81
2022/03/06 02:52:28;;;;;;;15.00;9.95;;;2.70;99.90;;;;;;4986983;28;20080;-81
2022/03/06 02:54:54;;;;;;;16.50;9.38;;;2.60;99.90;;;;;;5016199;28;20572;-81
2022/03/06 02:57:20;;;;;;;15.88;10.02;;;2.70;99.90;;;;;;5017978;28;20042;-80
2022/03/06 02:59:46;;;;;;;13.20;10.10;;;3.70;99.90;;;;;;5002538;28;20072;-80
2022/03/06 03:02:11;;;;;;;13.18;8.80;;;4.00;99.90;;;;;;5001277;28;20049;-80
2022/03/06 03:04:38;;;;;;;12.65;8.60;;;2.70;99.90;;;;;;5002788;28;20104;-81
2022/03/06 03:07:06;;;;;;;10.50;8.23;;;3.40;99.90;;;;;;5018131;28;20120;-80
2022/03/06 03:09:33;;;;;;;10.43;8.77;;;3.30;99.90;;;;;;4987430;28;20406;-81
2022/03/06 03:11:59;;;;;;;11.18;8.25;;;2.70;99.90;;;;;;5033306;28;20044;-80
2022/03/06 03:14:24;;;;;;;11.15;8.93;;;3.20;99.90;;;;;;5017960;28;20515;-81
2022/03/06 03:16:50;;;;;;;13.40;9.25;;;3.90;99.90;;;;;;5000316;28;20045;-81
2022/03/06 03:19:17;;;;;;;11.30;8.52;;;4.30;99.90;;;;;;5002210;28;20065;-80
2022/03/06 03:21:43;;;;;;;11.90;8.52;;;3.90;99.90;;;;;;5001875;28;20112;-81
2022/03/06 03:24:10;;;;;;;13.02;9.13;;;2.60;99.90;;;;;;5009454;28;20395;-80
2022/03/06 03:26:35;;;;;;;14.23;8.80;;;2.60;99.90;;;;;;5009380;28;20104;-81
2022/03/06 03:29:01;;;;;;;15.73;8.75;;;2.60;99.90;;;;;;5008879;28;20188;-80
2022/03/06 03:31:27;;;;;;;13.63;8.68;;;3.90;99.90;;;;;;5009124;28;20068;-80
2022/03/06 03:33:53;;;;;;;13.25;9.50;;;2.60;99.90;;;;;;5016730;28;20068;-80
2022/03/06 03:36:19;;;;;;;13.23;9.45;;;2.60;99.90;;;;;;4985332;28;20041;-81
2022/03/06 03:38:45;;;;;;;11.00;8.65;;;2.10;99.90;;;;;;5002949;28;20514;-81
2022/03/06 03:41:11;;;;;;;12.10;8.32;;;3.20;99.90;;;;;;4999248;28;20053;-81
2022/03/06 03:43:37;;;;;;;13.95;8.52;;;3.10;99.90;;;;;;5002477;28;20061;-80
2022/03/06 03:46:06;;;;;;;14.02;8.05;;;3.70;99.90;;;;;;5008943;28;20119;-80
2022/03/06 03:48:32;;;;;;;14.32;9.10;;;2.60;99.90;;;;;;4998944;28;20107;-81
2022/03/06 03:50:58;;;;;;;13.10;8.80;;;3.00;99.90;;;;;;5016861;28;20597;-80
2022/03/06 03:53:24;;;;;;;10.82;8.38;;;3.50;99.90;;;;;;5001072;28;20061;-81
2022/03/06 03:55:52;;;;;;;11.32;8.43;;;3.60;99.90;;;;;;5008170;28;20042;-80
2022/03/06 03:58:18;;;;;;;11.73;8.50;;;3.80;99.90;;;;;;5002566;28;20057;-81
2022/03/06 04:00:45;;;;;;;11.52;8.20;;;2.60;99.90;;;;;;5008795;28;20500;-81
2022/03/06 04:03:11;;;;;;;12.73;7.53;;;2.60;99.90;;;;;;5017756;28;20045;-80
2022/03/06 04:05:37;;;;;;;12.80;8.30;;;2.60;99.90;;;;;;5017022;28;20104;-81
2022/03/06 04:08:03;;;;;;;13.20;8.82;;;2.70;99.90;;;;;;5016464;28;20483;-81
2022/03/06 04:10:29;;;;;;;10.63;8.38;;;2.60;99.90;;;;;;5000314;28;20058;-81
2022/03/06 04:12:55;;;;;;;11.60;8.50;;;3.00;99.90;;;;;;5016305;28;20856;-81
2022/03/06 04:15:21;;;;;;;11.90;7.72;;;2.60;99.90;;;;;;4984898;28;20042;-81
2022/03/06 04:17:46;;;;;;;10.32;7.60;;;2.60;99.90;;;;;;5016165;28;20492;-80
2022/03/06 04:20:12;;;;;;;12.15;8.02;;;3.40;99.90;;;;;;4984820;28;20068;-81
2022/03/06 04:22:38;;;;;;;10.27;7.40;;;2.60;99.90;;;;;;5010093;28;20049;-81
2022/03/06 04:25:04;;;;;;;12.40;7.38;;;2.60;99.90;;;;;;5006156;28;20045;-81
2022/03/06 04:27:30;;;;;;;8.82;7.05;;;2.60;99.90;;;;;;5005385;28;20124;-81
2022/03/06 04:29:56;;;;;;;10.95;6.82;;;2.60;99.90;;;;;;5020432;28;20064;-81
2022/03/06 04:32:23;;;;;;;12.27;7.28;;;2.60;99.90;;;;;;5005474;28;20128;-81
2022/03/06 04:34:49;;;;;;;10.43;7.00;;;2.60;99.90;;;;;;5006036;28;20054;-81
2022/03/06 04:37:15;;;;;;;9.82;6.57;;;4.00;99.90;;;;;;5022020;28;20049;-81
2022/03/06 04:39:41;;;;;;;8.95;5.93;;;3.90;99.90;;;;;;5020664;28;20054;-80
2022/03/06 04:42:06;;;;;;;11.82;6.95;;;2.60;99.90;;;;;;4987782;28;20258;-81
2022/03/06 04:44:32;;;;;;;9.32;6.40;;;3.00;99.90;;;;;;5005464;28;20047;-81
2022/03/06 04:46:58;;;;;;;8.88;5.90;;;4.10;99.90;;;;;;5004713;28;20483;-81
2022/03/06 04:49:24;;;;;;;8.43;6.03;;;2.50;99.90;;;;;;5013134;28;20136;-81
2022/03/06 04:51:50;;;;;;;9.05;6.20;;;2.50;99.90;;;;;;5012000;28;20056;-81
2022/03/06 04:54:16;;;;;;;10.13;6.60;;;1.80;99.90;;;;;;5004946;28;20489;-81
2022/03/06 04:56:41;;;;;;;6.85;5.82;;;2.60;99.90;;;;;;5011069;28;20070;-80
2022/03/06 04:59:07;;;;;;;8.90;5.65;;;2.60;99.90;;;;;;5003975;28;20089;-81
2022/03/06 05:01:33;;;;;;;7.65;5.47;;;2.50;99.90;;;;;;5005896;28;20137;-81
2022/03/06 05:04:01;;;;;;;7.22;5.05;;;2.50;99.90;;;;;;5021757;28;20050;-80
2022/03/06 05:06:27;;;;;;;11.82;5.68;;;2.60;99.90;;;;;;5004510;28;20557;-81
2022/03/06 05:08:53;;;;;;;8.55;5.70;;;2.50;99.90;;;;;;5010687;28;20053;-81
2022/03/06 05:11:19;;;;;;;10.30;5.88;;;2.50;99.90;;;;;;5019848;28;20054;-81
2022/03/06 05:13:45;;;;;;;6.60;4.93;;;4.10;99.90;;;;;;5021204;28;20948;-80
2022/03/06 05:16:11;;;;;;;8.55;4.30;;;4.10;99.90;;;;;;5019653;28;20046;-80
2022/03/06 05:18:37;;;;;;;7.63;4.35;;;3.30;99.90;;;;;;5011605;28;20057;-81
2022/03/06 05:21:03;;;;;;;5.82;3.38;;;2.50;99.90;;;;;;5018894;28;20060;-81
2022/03/06 05:23:29;;;;;;;5.05;3.75;;;3.70;99.90;;;;;;5012356;28;20513;-81
2022/03/06 05:25:55;;;;;;;4.80;3.53;;;2.60;99.90;;;;;;5004193;28;20053;-81
2022/03/06 05:28:21;;;;;;;4.35;3.20;;;3.10;99.90;;;;;;5011915;28;20044;-81
2022/03/06 05:30:47;;;;;;;3.22;2.60;;;4.00;99.90;;;;;;5008174;28;20442;-81
2022/03/06 05:33:13;;;;;;;5.05;2.83;;;2.40;99.90;;;;;;5004303;28;20059;-81
2022/03/06 05:35:38;;;;;;;3.47;2.35;;;2.40;99.90;;;;;;4995356;28;20041;-80
2022/03/06 05:38:05;;;;;;;6.47;2.65;;;2.80;99.90;;;;;;4987520;28;20054;-81
2022/03/06 05:40:30;;;;;;;5.60;2.40;;;2.40;99.90;;;;;;5004904;28;20050;-80
2022/03/06 05:42:56;;;;;;;4.00;2.22;;;3.20;99.90;;;;;;5007212;28;20103;-81
2022/03/06 05:45:22;;;;;;;5.57;2.25;;;3.70;99.90;;;;;;5004302;28;20057;-80
2022/03/06 05:47:48;;;;;;;5.10;2.00;;;3.70;99.90;;;;;;5020746;28;20041;-80
2022/03/06 05:50:14;;;;;;;2.85;2.00;;;3.00;99.90;;;;;;5012865;28;20053;-80
2022/03/06 05:52:40;;;;;;;3.85;1.98;;;2.30;99.90;;;;;;5027466;28;20045;-80
2022/03/06 05:55:06;;;;;;;3.55;1.80;;;2.40;99.90;;;;;;4995321;28;20094;-80
2022/03/06 05:57:32;;;;;;;5.13;1.92;;;2.40;99.90;;;;;;4996502;28;20184;-80
2022/03/06 05:59:58;;;;;;;4.65;1.85;;;2.40;99.90;;;;;;5005335;28;20052;-80
2022/03/06 06:02:24;;;;;;;4.47;2.00;;;2.40;99.90;;;;;;4986741;28;20053;-80
2022/03/06 06:04:50;;;;;;;2.53;1.80;;;3.80;99.90;;;;;;5003763;28;20145;-81
2022/03/06 06:07:16;;;;;;;3.58;1.92;;;3.10;99.90;;;;;;5004057;28;20113;-81
2022/03/06 06:09:42;;;;;;;4.60;1.92;;;2.40;99.90;;;;;;5004408;28;20049;-81
2022/03/06 06:12:08;;;;;;;2.33;1.40;;;2.40;99.90;;;;;;5018060;28;20124;-81
2022/03/06 06:14:34;;;;;;;2.60;1.65;;;2.40;99.90;;;;;;5017761;28;20068;-81
2022/03/06 06:17:00;;;;;;;2.03;1.40;;;2.50;99.90;;;;;;5010200;28;20042;-81
2022/03/06 06:19:26;;;;;;;4.00;1.38;;;2.40;99.90;;;;;;4985841;28;20128;-81
2022/03/06 06:21:52;;;;;;;4.07;1.52;;;2.40;99.90;;;;;;5010325;28;20043;-81
2022/03/06 06:24:18;;;;;;;2.67;1.63;;;2.50;99.90;;;;;;5004016;28;20347;-81
2022/03/06 06:26:49;;;;;;;2.72;1.63;;;3.30;99.90;;;;;;5002653;28;20049;-81
2022/03/06 06:29:15;;;;;;;5.15;1.80;;;3.90;99.90;;;;;;5002816;28;20049;-81
2022/03/06 06:31:41;;;;;;;3.08;1.90;;;2.90;99.90;;;;;;5017629;28;20089;-81
2022/03/06 06:34:07;;;;;;;5.03;1.92;;;2.60;99.90;;;;;;5010383;28;20088;-81
2022/03/06 06:36:33;;;;;;;2.92;1.65;;;2.50;99.90;;;;;;5003850;28;20041;-81
2022/03/06 06:38:58;;;;;;;4.93;1.65;;;3.20;99.90;;;;;;5019180;28;20038;-81
2022/03/06 06:41:24;;;;;;;3.67;1.60;;;3.20;99.90;;;;;;5001569;28;20058;-80
2022/03/06 06:43:50;;;;;;;3.15;1.40;;;2.50;99.90;;;;;;5004100;28;20096;-80
2022/03/06 06:46:16;;;;;;;4.13;1.55;;;2.50;99.90;;;;;;5016855;28;20049;-80
2022/03/06 06:48:42;;;;;;;4.10;1.50;;;2.90;99.90;;;;;;5002907;28;20056;-79
2022/03/06 06:51:08;;;;;;;2.95;1.70;;;2.50;99.90;;;;;;5009540;28;20140;-81
2022/03/06 06:53:34;;;;;;;3.97;1.77;;;3.90;99.90;;;;;;5020461;28;20174;-79
2022/03/06 06:56:00;;;;;;;4.40;1.67;;;3.60;99.90;;;;;;5016661;28;20046;-79
2022/03/06 06:58:26;;;;;;;3.00;1.58;;;2.50;99.90;;;;;;5001225;28;20049;-79
2022/03/06 07:00:52;;;;;;;3.10;1.55;;;2.40;99.90;;;;;;5034529;28;20104;-79
2022/03/06 07:03:18;;;;;;;2.45;1.60;;;2.40;99.90;;;;;;5017689;28;20037;-79
2022/03/06 07:05:45;;;;;;;4.18;1.65;;;2.40;99.90;;;;;;5010456;28;20038;-79
2022/03/06 07:08:11;;;;;;;2.83;1.80;;;2.40;99.90;;;;;;4985471;28;20131;-78
2022/03/06 07:10:38;;;;;;;3.13;1.80;;;3.00;99.90;;;;;;5001633;28;20049;-78
2022/03/06 07:13:03;;;;;;;2.97;1.60;;;2.60;99.90;;;;;;5009189;28;20054;-79
2022/03/06 07:15:32;;;;;;;3.53;2.28;;;2.20;99.90;;;;;;5002325;28;20056;-79
2022/03/06 07:17:58;;;;;;;3.45;2.00;;;2.20;99.90;;;;;;5018232;28;20489;-79
2022/03/06 07:20:34;;;;;;;3.38;1.80;;;3.50;99.90;;;;;;5009119;28;20076;-79
2022/03/06 07:23:00;;;;;;;;;;;2.10;99.90;;;;;;5019353;28;20046;-79
2022/03/06 07:25:31;;;;;;;2.77;1.73;;;3.40;99.90;;;;;;5001571;28;19979;-79
2022/03/06 07:27:57;;;;;;;2.40;1.58;;;2.10;99.90;;;;;;5032003;28;20688;-81
2022/03/06 07:30:23;;;;;;;2.88;2.20;;;2.10;99.90;;;;;;5023607;28;20095;-80
2022/03/06 07:32:51;;;;;;;2.97;1.92;;;2.00;99.90;;;;;;5009496;28;20053;-80
2022/03/06 07:35:19;;;;;;;2.95;1.80;;;2.00;99.90;;;;;;5001767;28;20041;-80
2022/03/06 07:37:46;;;;;;;2.22;1.65;;;2.80;99.90;;;;;;5001702;28;20064;-80
2022/03/06 07:40:15;;;;;;;3.00;1.98;;;2.90;99.90;;;;;;5016894;28;20041;-80
2022/03/06 07:42:41;;;;;;;3.55;1.90;;;2.80;99.90;;;;;;5008824;28;20053;-82
2022/03/06 07:45:10;;;;;;;7.07;2.70;;;2.10;99.90;;;;;;5018278;28;20041;-81
2022/03/06 07:47:41;;;;;;;5.30;2.53;;;2.00;99.90;;;;;;5018314;28;20057;-81
2022/03/06 07:50:11;;;;;;;3.40;1.98;;;2.00;99.90;;;;;;5007064;28;20061;-80
2022/03/06 07:52:39;;;;;;;3.65;1.92;;;2.10;99.90;;;;;;5020463;28;20058;-81
2022/03/06 07:55:06;;;;;;;3.03;2.00;;;2.10;99.90;;;;;;5005780;28;20507;-82
2022/03/06 07:57:33;;;;;;;4.45;1.98;;;2.10;99.90;;;;;;5008336;28;20518;-81
2022/03/06 07:59:59;;;;;;;3.30;2.00;;;2.10;99.90;;;;;;5002865;28;20045;-82
2022/03/06 08:02:26;;;;;;;3.10;1.85;;;;;;;;;;5010693;28;20051;-80
2022/03/06 08:04:55;;;;;;;3.42;1.70;;;2.30;99.90;;;;;;4999294;28;20065;-82
2022/03/06 08:07:22;;;;;;;2.75;1.60;;;3.90;99.90;;;;;;5016315;28;20603;-82
2022/03/06 08:09:47;;;;;;;2.63;1.50;;;2.40;99.90;;;;;;4985860;28;20045;-81
2022/03/06 08:12:15;;;;;;;3.67;1.70;;;2.40;99.90;;;;;;5000761;28;20052;-81
2022/03/06 08:14:41;;;;;;;3.83;1.60;;;2.70;99.90;;;;;;5018369;28;20161;-81
2022/03/06 08:17:07;;;;;;;5.70;1.80;;;2.60;99.90;;;;;;5008166;28;20046;-82
2022/03/06 08:19:35;;;;;;;3.13;1.45;;;2.90;99.90;;;;;;5010496;28;20061;-82
2022/03/06 08:22:15;;;;;;;2.30;1.60;;;4.30;99.90;;;;;;5010901;28;20475;-81
2022/03/06 08:24:41;;;;;;;4.00;1.58;;;2.50;99.90;;;;;;5002503;28;20048;-81
2022/03/06 08:31:20;;;;;;;;;;;;;;;;;;;;;
2022/03/06 08:33:46;;;;;;;2.83;1.48;;;4.10;99.90;;;;;;4935022;28;20054;-84
2022/03/06 08:36:12;;;;;;;3.75;2.05;;;4.40;99.90;;;;;;5032759;28;20038;-80
2022/03/06 08:38:39;;;;;;;3.10;1.52;;;4.60;99.90;;;;;;5009473;28;20971;-85
2022/03/06 08:41:22;;;;;;;6.40;1.83;;;4.80;99.90;;;;;;5023816;28;20037;-82
2022/03/06 08:43:48;;;;;;;5.93;2.83;;;5.10;99.90;;;;;;5009333;28;20377;-82
2022/03/06 08:46:14;;;;;;;4.70;2.10;;;5.30;99.90;;;;;;5018353;28;20515;-84
2022/03/06 08:48:40;;;;;;;4.38;1.73;;;5.60;99.90;;;;;;5002478;28;20050;-82
2022/03/06 08:51:06;;;;;;;2.75;1.35;;;5.90;99.90;;;;;;4937700;28;20061;-82
2022/03/06 08:53:33;;;;;;;3.42;1.33;;;6.20;99.90;;;;;;4989650;28;20081;-81
2022/03/06 08:56:02;;;;;;;2.75;1.60;;;6.40;99.90;;;;;;5002296;28;20053;-81
2022/03/06 08:58:28;;;;;;;3.63;1.67;;;5.40;99.90;;;;;;5017235;28;20541;-83
2022/03/06 09:00:54;;;;;;;4.32;1.60;;;6.90;99.90;;;;;;5002258;28;20057;-82
2022/03/06 09:03:20;;;;;;;3.08;1.55;;;7.10;99.90;;;;;;5016409;28;20045;-83
2022/03/06 09:05:46;;;;;;;3.65;1.48;;;7.40;99.90;;;;;;5008106;28;20517;-81
2022/03/06 09:08:12;;;;;;;3.50;1.50;;;7.60;99.90;;;;;;4985081;28;20050;-83
2022/03/06 09:10:39;;;;;;;4.45;1.70;;;7.80;99.90;;;;;;5020766;28;20064;-82
2022/03/06 09:13:06;;;;;;;2.92;1.42;;;7.30;99.90;;;;;;5018260;28;20561;-83
2022/03/06 09:15:32;;;;;;;5.03;1.80;;;8.20;99.90;;;;;;5011767;28;20403;-83
2022/03/06 09:18:06;;;;;;;3.17;1.90;;;8.20;99.90;;;;;;5009412;28;20116;-83
2022/03/06 09:20:32;;;;;;;3.45;1.85;;;8.20;99.90;;;;;;5033140;28;20046;-83
2022/03/06 09:22:58;;;;;;;3.33;1.70;;;7.80;99.90;;;;;;5010791;28;20084;-81
2022/03/06 09:25:28;;;;;;;2.95;1.50;;;8.40;99.90;;;;;;5009150;28;20564;-82
2022/03/06 09:27:54;;;;;;;5.78;2.80;;;8.30;99.90;;;;;;5003600;28;20049;-82
2022/03/06 09:30:20;;;;;;;3.42;1.90;;;8.40;99.90;;;;;;5001362;28;20060;-82
2022/03/06 09:32:46;;;;;;;4.60;1.88;;;8.30;99.90;;;;;;5017265;28;20056;-82
2022/03/06 09:35:12;;;;;;;3.70;1.73;;;8.30;99.90;;;;;;5002559;28;20049;-83
2022/03/06 09:37:38;;;;;;;3.55;1.75;;;8.30;99.90;;;;;;5019007;28;20057;-82
2022/03/06 09:40:05;;;;;;;2.75;1.70;;;8.30;99.90;;;;;;5019962;28;20100;-81
2022/03/06 09:42:31;;;;;;;2.88;1.63;;;7.20;99.90;;;;;;5003560;28;20137;-82
2022/03/06 09:44:57;;;;;;;4.63;1.77;;;8.40;99.90;;;;;;5011744;28;20046;-82
2022/03/06 09:47:24;;;;;;;2.88;1.95;;;8.50;99.90;;;;;;5017927;28;20099;-81
2022/03/06 09:49:52;;;;;;;2.95;1.63;;;8.70;99.90;;;;;;5036843;28;20057;-82
2022/03/06 09:52:18;;;;;;;4.10;1.50;;;8.80;99.90;;;;;;5020011;28;20056;-82
2022/03/06 09:54:44;;;;;;;4.90;1.83;;;9.10;99.90;;;;;;5019176;28;20042;-82
2022/03/06 09:57:10;;;;;;;4.32;1.65;;;9.00;99.90;;;;;;5010696;28;20067;-81
2022/03/06 09:59:35;;;;;;;3.30;1.90;;;9.50;99.90;;;;;;5002672;28;20041;-82
2022/03/06 10:02:06;;;;;;;3.13;1.60;;;9.80;99.90;;;;;;5011330;28;20049;-82
2022/03/06 10:04:34;;;;;;;3.00;1.90;;;10.10;99.90;;;;;;5003199;28;20049;-82
2022/03/06 10:07:19;;;;;;;4.03;2.33;;;10.30;99.90;;;;;;5018343;28;20161;-82
2022/03/06 10:09:50;;;;;;;4.57;2.40;;;10.50;99.90;;;;;;5002612;28;20152;-82
2022/03/06 10:12:21;;;;;;;3.17;1.70;;;10.60;99.90;;;;;;5010280;28;20458;-83
2022/03/06 10:14:48;;;;;;;5.43;2.03;;;10.80;99.90;;;;;;5037864;28;20053;-81
2022/03/06 10:17:20;;;;;;;3.85;2.30;;;10.90;99.90;;;;;;5017200;28;20042;-83
2022/03/06 10:19:50;;;;;;;5.28;2.60;;;10.90;99.90;;;;;;4982908;28;20058;-82
2022/03/06 10:22:17;;;;;;;6.10;3.20;;;11.00;99.90;;;;;;4999031;28;20133;-82
2022/03/06 10:24:51;;;;;;;5.35;3.03;;;10.90;99.90;;;;;;5016476;28;20054;-81
2022/03/06 10:27:46;;;;;;;4.07;2.00;;;10.00;98.80;;;;;;4998352;28;20507;-82
2022/03/06 10:30:34;;;;;;;2.88;1.75;;;11.00;98.70;;;;;;4982974;28;20731;-82
2022/03/06 10:33:05;;;;;;;3.13;1.85;;;10.90;98.70;;;;;;5017273;28;20042;-82
2022/03/06 10:35:34;;;;;;;2.67;1.83;;;10.90;99.90;;;;;;4997648;28;20552;-82
2022/03/06 10:38:00;;;;;;;3.30;1.80;;;10.80;99.90;;;;;;4982333;28;20045;-82
2022/03/06 10:40:37;;;;;;;5.65;2.17;;;10.80;99.90;;;;;;4997569;28;20085;-82
2022/03/06 10:43:32;;;;;;;2.92;1.80;;;10.80;99.40;;;;;;4984182;28;20108;-82
2022/03/06 10:46:07;;;;;;;4.50;1.88;;;10.80;98.50;;;;;;4994016;28;20057;-82
2022/03/06 10:48:34;;;;;;;3.33;1.83;;;10.80;99.30;;;;;;5014472;28;20054;-82
2022/03/06 10:51:06;;;;;;;4.28;2.17;;;10.80;99.70;;;;;;4999377;28;20054;-82
2022/03/06 10:53:32;;;;;;;2.30;1.70;;;10.90;99.30;;;;;;4998758;28;20092;-82
2022/03/06 10:56:15;;;;;;;3.40;2.10;;;10.90;99.70;;;;;;4998559;28;20453;-82
2022/03/06 10:58:45;;;;;;;2.53;1.58;;;11.00;98.60;;;;;;4999473;28;20050;-82
2022/03/06 11:01:12;;;;;;;3.63;2.03;;;11.10;99.20;;;;;;4998602;28;20104;-82
2022/03/06 11:03:38;;;;;;;3.55;1.77;;;11.20;99.40;;;;;;4998566;28;20279;-82
2022/03/06 11:06:05;;;;;;;3.72;2.00;;;11.40;99.10;;;;;;4999186;28;20053;-82
2022/03/06 11:08:32;;;;;;;3.75;2.05;;;11.50;98.70;;;;;;4982238;28;20085;-82
2022/03/06 11:10:59;;;;;;;3.83;2.10;;;11.60;98.50;;;;;;4998410;28;20058;-82
2022/03/06 11:13:27;;;;;;;3.83;2.17;;;11.90;97.60;;;;;;4982488;28;20050;-82
2022/03/06 11:15:54;;;;;;;6.45;1.98;;;12.20;97.00;;;;;;5014989;28;20045;-82
2022/03/06 11:18:24;;;;;;;3.95;2.30;;;12.40;96.90;;;;;;5004859;28;20061;-84
2022/03/06 11:20:53;;;;;;;4.25;2.20;;;12.80;95.90;;;;;;5002442;28;20049;-83
2022/03/06 11:23:43;;;;;;;3.42;1.52;;;13.40;95.30;;;;;;5018192;28;20111;-83
2022/03/06 11:26:17;;;;;;;3.50;1.63;;;13.90;91.40;;;;;;5007458;28;20077;-83
2022/03/06 11:28:55;;;;;;;5.05;1.73;;;14.10;91.40;;;;;;5000171;28;20053;-82
2022/03/06 11:31:22;;;;;;;4.60;1.80;;;14.10;91.50;;;;;;5016611;28;20065;-83
2022/03/06 11:34:03;;;;;;;4.28;1.80;;;14.10;91.80;;;;;;4986479;28;20578;-83
2022/03/06 11:36:33;;;;;;;3.28;1.90;;;14.50;85.60;;;;;;5015949;28;20046;-83
2022/03/06 11:38:59;;;;;;;2.67;1.52;;;14.80;86.60;;;;;;5025240;28;20454;-83
2022/03/06 11:41:26;;;;;;;3.15;1.60;;;14.50;85.80;;;;;;5016047;28;20061;-83
2022/03/06 11:43:54;;;;;;;2.55;1.50;;;14.10;85.50;;;;;;5001919;28;20183;-82
2022/03/06 11:46:26;;;;;;;3.28;1.85;;;13.70;86.90;;;;;;5008730;28;20049;-82
2022/03/06 11:48:52;;;;;;;4.70;1.75;;;13.60;86.00;;;;;;5001930;28;20045;-83
2022/03/06 11:51:22;;;;;;;4.00;1.65;;;13.70;90.30;;;;;;5008908;28;20092;-82
2022/03/06 11:54:01;;;;;;;4.63;1.50;;;13.90;88.00;;;;;;5001017;28;20061;-82
2022/03/06 11:56:39;;;;;;;3.83;1.60;;;14.50;85.40;;;;;;5025490;28;20086;-81
2022/03/06 11:59:07;;;;;;;4.50;1.63;;;14.50;83.90;;;;;;5000603;28;20044;-82
2022/03/06 12:01:47;;;;;;;3.05;1.73;;;14.30;84.30;;;;;;5014884;28;20123;-83
2022/03/06 12:04:21;;;;;;;3.38;1.30;;;14.10;84.40;;;;;;5009350;28;20048;-82
2022/03/06 12:06:57;;;;;;;4.38;1.60;;;14.40;84.70;;;;;;5001292;28;20514;-82
2022/03/06 12:09:32;;;;;;;2.25;1.35;;;15.40;80.10;;;;;;5001568;28;20124;-83
2022/03/06 12:12:04;;;;;;;2.45;1.45;;;16.80;74.60;;;;;;5000404;28;20121;-82
2022/03/06 12:14:35;;;;;;;3.85;1.70;;;17.90;68.90;;;;;;5009640;28;20045;-83
2022/03/06 12:17:02;;;;;;;3.65;1.35;;;18.70;63.90;;;;;;5000174;28;20041;-82
2022/03/06 12:19:43;;;;;;;4.20;1.52;;;19.00;60.90;;;;;;5008069;28;20113;-82
2022/03/06 12:22:15;;;;;;;3.65;1.60;;;18.30;59.40;;;;;;5014162;28;20057;-81
2022/03/06 12:24:45;;;;;;;4.00;1.42;;;17.80;57.70;;;;;;5013708;28;20053;-82
2022/03/06 12:27:16;;;;;;;1.95;1.33;;;17.10;61.80;;;;;;5025390;28;20136;-81
2022/03/06 12:29:48;;;;;;;2.30;1.50;;;16.60;63.60;;;;;;5009013;28;20054;-81
2022/03/06 12:32:31;;;;;;;4.13;1.67;;;16.20;65.70;;;;;;5009815;28;20045;-81
2022/03/06 12:35:04;;;;;;;3.38;1.55;;;15.80;67.30;;;;;;5018072;28;20403;-82
2022/03/06 12:37:35;;;;;;;2.90;1.42;;;15.70;68.80;;;;;;5000072;28;20077;-81
2022/03/06 12:40:06;;;;;;;2.40;1.40;;;15.70;68.90;;;;;;5015498;28;20049;-82
2022/03/06 12:42:36;;;;;;;4.47;1.55;;;15.70;70.10;;;;;;5016240;28;20073;-82
2022/03/06 12:45:09;;;;;;;3.28;1.38;;;16.20;69.70;;;;;;5040789;28;20110;-81
2022/03/06 12:47:39;;;;;;;3.75;1.40;;;17.00;68.20;;;;;;5021464;28;20045;-82
2022/03/06 12:50:12;;;;;;;3.63;1.45;;;17.20;66.50;;;;;;5013645;28;20046;-83
2022/03/06 12:52:39;;;;;;;3.72;1.75;;;17.30;64.00;;;;;;5022465;28;20045;-81
2022/03/06 12:55:14;;;;;;;2.35;1.30;;;17.70;63.80;;;;;;5000709;28;20045;-82
2022/03/06 12:57:43;;;;;;;5.18;1.92;;;18.10;62.20;;;;;;5002582;28;20492;-81
2022/03/06 13:00:36;;;;;;;2.80;1.33;;;18.10;61.60;;;;;;5007878;28;20395;-83